Time;durP1;ratioP1;P1;durP2;ratioP2;P2;SDS_P1;SDS_P2;PMS_P1;PMS_P2;Temp;Humidity;BMP_temperature;BMP_pressure;BME280_temperature;BME280_humidity;BME280_pressure;Samples;Min_cycle;Max_cycle;Signal;HPM_P1;HPM_P2
2022/03/25 00:00:48;;;;;;;43.85;18.75;;;;;;;23.58;13.80;99157.34;5033991;28;20034;-78
2022/03/25 00:03:14;;;;;;;35.92;15.77;;;;;;;23.78;13.63;99150.84;5032279;28;20152;-77
2022/03/25 00:05:40;;;;;;;38.10;16.42;;;;;;;23.73;13.93;99148.50;5029289;28;20029;-77
2022/03/25 00:08:08;;;;;;;32.97;14.95;;;;;;;23.14;13.99;99146.59;5034999;28;20025;-78
2022/03/25 00:10:34;;;;;;;40.45;17.02;;;;;;;23.00;14.33;99144.59;5030941;28;20457;-78
2022/03/25 00:13:00;;;;;;;43.33;17.80;;;;;;;22.47;14.87;99141.78;5032799;28;20065;-78
2022/03/25 00:15:26;;;;;;;41.58;17.67;;;;;;;22.67;15.04;99140.22;5033031;28;20037;-78
2022/03/25 00:17:52;;;;;;;43.80;17.77;;;;;;;22.63;14.56;99141.41;5031730;28;20064;-78
2022/03/25 00:20:18;;;;;;;44.88;18.08;;;;;;;22.72;14.44;99135.41;5032915;28;20033;-78
2022/03/25 00:22:44;;;;;;;46.50;17.73;;;;;;;22.75;14.58;99127.03;5027066;28;20052;-78
2022/03/25 00:25:11;;;;;;;42.70;17.98;;;;;;;22.51;14.74;99125.78;5033452;28;20029;-78
2022/03/25 00:27:37;;;;;;;40.45;16.67;;;;;;;22.90;14.63;99127.78;5032366;28;20061;-78
2022/03/25 00:30:04;;;;;;;39.75;18.23;;;;;;;23.18;13.98;99127.78;5035336;28;20466;-78
2022/03/25 00:32:30;;;;;;;49.15;18.30;;;;;;;23.53;13.63;99122.09;5031137;28;20762;-78
2022/03/25 00:34:56;;;;;;;57.53;21.85;;;;;;;23.59;13.65;99128.91;5028646;28;20052;-77
2022/03/25 00:37:23;;;;;;;55.83;21.80;;;;;;;23.55;13.83;99128.09;5032354;28;20022;-77
2022/03/25 00:39:49;;;;;;;59.88;21.10;;;;;;;23.27;13.84;99122.53;5029999;28;20496;-77
2022/03/25 00:42:16;;;;;;;65.97;25.13;;;;;;;23.19;13.70;99124.59;5031581;28;20021;-78
2022/03/25 00:44:42;;;;;;;58.08;21.60;;;;;;;23.22;13.70;99122.97;5032070;28;20033;-77
2022/03/25 00:47:09;;;;;;;58.53;21.10;;;;;;;23.10;14.06;99132.59;5029939;28;20030;-77
2022/03/25 00:49:35;;;;;;;44.90;17.95;;;;;;;23.06;14.06;99125.38;5030426;28;20021;-77
2022/03/25 00:52:03;;;;;;;57.08;21.35;;;;;;;23.28;13.82;99124.16;5032907;28;20480;-77
2022/03/25 00:54:29;;;;;;;55.75;20.88;;;;;;;23.23;14.06;99119.75;5032075;28;20025;-78
2022/03/25 00:56:55;;;;;;;44.60;19.02;;;;;;;22.77;14.21;99118.22;5031100;28;20042;-77
2022/03/25 00:59:22;;;;;;;58.13;23.48;;;;;;;22.63;14.37;99119.81;5015333;28;20030;-76
2022/03/25 01:01:48;;;;;;;39.40;18.25;;;;;;;22.40;14.72;99116.56;5026177;28;20064;-77
2022/03/25 01:04:14;;;;;;;39.92;17.42;;;;;;;22.28;14.68;99119.75;5016918;28;20034;-77
2022/03/25 01:06:40;;;;;;;40.88;17.25;;;;;;;22.34;14.67;99114.53;5035358;28;20029;-77
2022/03/25 01:09:07;;;;;;;41.30;16.58;;;;;;;22.77;14.24;99116.22;5028539;28;20480;-77
2022/03/25 01:11:35;;;;;;;40.83;15.93;;;;;;;22.38;14.47;99109.78;5025368;28;20874;-77
2022/03/25 01:14:02;;;;;;;40.40;17.58;;;;;;;22.34;14.67;99111.75;5032879;28;20065;-77
2022/03/25 01:16:28;;;;;;;41.80;16.35;;;;;;;22.26;14.46;99110.97;5030428;28;20040;-77
2022/03/25 01:18:54;;;;;;;39.95;16.65;;;;;;;22.38;14.44;99109.78;5028981;28;20101;-77
2022/03/25 01:21:20;;;;;;;37.90;16.85;;;;;;;22.02;14.79;99108.91;5032054;28;20025;-77
2022/03/25 01:23:48;;;;;;;43.05;16.25;;;;;;;22.18;14.89;99112.13;5021993;28;20041;-77
2022/03/25 01:26:15;;;;;;;34.40;14.32;;;;;;;22.45;14.69;99112.59;5029629;28;20105;-77
2022/03/25 01:28:41;;;;;;;36.70;16.65;;;;;;;22.81;14.22;99114.22;5027219;28;20469;-77
2022/03/25 01:31:09;;;;;;;31.85;13.38;;;;;;;23.05;14.03;99107.78;5032578;28;20124;-78
2022/03/25 01:33:38;;;;;;;38.88;14.88;;;;;;;23.24;14.05;99100.97;5022938;28;20049;-77
2022/03/25 01:36:06;;;;;;;44.15;17.30;;;;;;;23.38;13.69;99105.75;5031268;28;20470;-78
2022/03/25 01:38:32;;;;;;;39.15;16.35;;;;;;;23.12;13.83;99101.38;5028585;28;20037;-77
2022/03/25 01:40:59;;;;;;;39.03;15.18;;;;;;;23.27;13.83;99103.72;5019248;28;20034;-78
2022/03/25 01:43:25;;;;;;;44.50;16.60;;;;;;;23.34;13.60;99097.31;5031152;28;20035;-78
2022/03/25 01:45:51;;;;;;;39.70;17.17;;;;;;;23.50;13.78;99099.72;5032078;28;20032;-78
2022/03/25 01:48:17;;;;;;;35.13;16.23;;;;;;;23.21;13.78;99110.16;5030251;28;20024;-77
2022/03/25 01:50:46;;;;;;;44.28;18.25;;;;;;;23.07;13.63;99111.00;5030817;28;20018;-78
2022/03/25 01:53:18;;;;;;;36.30;15.15;;;;;;;23.07;13.53;99105.38;5031847;28;20026;-77
2022/03/25 01:55:56;;;;;;;44.85;17.85;;;;;;;23.11;13.37;99108.16;5034429;28;20035;-78
2022/03/25 01:58:22;;;;;;;41.90;18.30;;;;;;;22.89;13.88;99107.41;5030819;28;20038;-77
2022/03/25 02:00:49;;;;;;;40.17;16.85;;;;;;;22.98;14.04;99113.41;5030945;28;20056;-77
2022/03/25 02:03:16;;;;;;;37.88;16.35;;;;;;;23.07;13.78;99108.19;5029418;28;20044;-77
2022/03/25 02:05:43;;;;;;;41.53;18.38;;;;;;;23.20;13.44;99106.56;5031919;28;20032;-77
2022/03/25 02:08:10;;;;;;;35.70;15.95;;;;;;;23.27;13.53;99112.13;5011621;28;20464;-77
2022/03/25 02:10:38;;;;;;;42.63;16.30;;;;;;;23.09;13.69;99102.97;5031797;28;20061;-78
2022/03/25 02:13:04;;;;;;;43.88;17.63;;;;;;;22.82;14.03;99107.41;5031495;28;20032;-78
2022/03/25 02:15:42;;;;;;;43.67;17.42;;;;;;;22.51;14.34;99105.38;5028427;28;20440;-77
2022/03/25 02:18:10;;;;;;;42.55;16.60;;;;;;;22.20;14.56;99109.72;5028971;28;20117;-77
2022/03/25 02:20:40;;;;;;;43.80;18.08;;;;;;;22.45;14.33;99112.59;5027205;28;20029;-78
2022/03/25 02:23:07;;;;;;;39.47;18.27;;;;;;;22.65;14.08;99111.81;5031218;28;20758;-78
2022/03/25 02:25:34;;;;;;;48.53;18.98;;;;;;;22.43;14.14;99112.16;5007061;28;20052;-78
2022/03/25 02:28:04;;;;;;;41.33;18.83;;;;;;;22.45;14.44;99102.16;5021713;28;20521;-77
2022/03/25 02:30:31;;;;;;;42.72;16.13;;;;;;;22.25;14.24;99114.94;5024969;28;20064;-77
2022/03/25 02:33:01;;;;;;;39.92;15.88;;;;;;;22.31;14.18;99107.75;5025362;28;20040;-77
2022/03/25 02:35:48;;;;;;;49.05;18.77;;;;;;;22.27;14.46;99117.31;5026982;28;20083;-77
2022/03/25 02:38:20;;;;;;;44.67;17.85;;;;;;;22.01;14.42;99116.47;5025858;28;20371;-77
2022/03/25 02:40:47;;;;;;;52.40;17.63;;;;;;;22.09;14.36;99116.50;5026864;28;20568;-77
2022/03/25 02:43:13;;;;;;;51.97;18.95;;;;;;;21.99;14.82;99118.88;5028907;28;20087;-77
2022/03/25 02:45:40;;;;;;;40.95;17.55;;;;;;;21.87;14.73;99118.41;5025561;28;20389;-77
2022/03/25 02:48:08;;;;;;;49.88;20.20;;;;;;;22.13;14.48;99118.09;5023252;28;20116;-77
2022/03/25 02:50:35;;;;;;;44.88;19.30;;;;;;;22.18;14.69;99116.91;5023234;28;20561;-77
2022/03/25 02:53:02;;;;;;;44.70;18.58;;;;;;;21.96;14.59;99122.44;5027047;28;20037;-77
2022/03/25 02:55:28;;;;;;;36.85;15.65;;;;;;;21.90;14.79;99115.66;5026039;28;20124;-77
2022/03/25 02:57:55;;;;;;;52.28;20.52;;;;;;;22.05;15.07;99127.69;5027041;28;20672;-77
2022/03/25 03:00:25;;;;;;;51.05;20.13;;;;;;;21.86;14.71;99117.63;5024653;28;20048;-77
2022/03/25 03:02:52;;;;;;;61.10;21.43;;;;;;;22.20;14.77;99123.72;5022703;28;20421;-77
2022/03/25 03:05:18;;;;;;;46.15;19.52;;;;;;;22.07;14.58;99124.47;5027902;28;20026;-77
2022/03/25 03:07:45;;;;;;;50.78;19.77;;;;;;;22.13;14.56;99122.88;5027680;28;20029;-77
2022/03/25 03:10:12;;;;;;;58.17;19.63;;;;;;;22.42;14.50;99121.75;5023194;28;20042;-77
2022/03/25 03:12:41;;;;;;;45.83;16.80;;;;;;;22.64;13.95;99131.78;5026829;28;20065;-77
2022/03/25 03:15:08;;;;;;;47.65;17.80;;;;;;;22.84;13.76;99127.41;5024756;28;20072;-77
2022/03/25 03:17:34;;;;;;;48.53;20.55;;;;;;;23.10;13.93;99129.00;5025184;28;20030;-77
2022/03/25 03:20:00;;;;;;;49.15;19.48;;;;;;;22.60;14.27;99128.16;5031975;28;20497;-77
2022/03/25 03:22:26;;;;;;;53.10;20.00;;;;;;;22.61;14.05;99127.00;5033614;28;20040;-77
2022/03/25 03:24:52;;;;;;;50.90;18.92;;;;;;;22.56;14.29;99130.19;5028768;28;20046;-77
2022/03/25 03:27:19;;;;;;;39.60;16.60;;;;;;;22.47;14.28;99135.38;5028318;28;20132;-77
2022/03/25 03:29:45;;;;;;;45.95;18.02;;;;;;;22.27;14.30;99129.31;5024040;28;20117;-77
2022/03/25 03:32:11;;;;;;;43.67;16.85;;;;;;;22.50;14.22;99129.75;5032908;28;20030;-77
2022/03/25 03:34:37;;;;;;;43.92;18.55;;;;;;;21.96;14.40;99125.25;5034568;28;20474;-77
2022/03/25 03:37:04;;;;;;;48.00;17.58;;;;;;;21.65;14.82;99125.09;5033673;28;20397;-77
2022/03/25 03:39:30;;;;;;;40.47;17.10;;;;;;;21.84;14.66;99131.19;5016657;28;20108;-77
2022/03/25 03:41:56;;;;;;;46.03;17.80;;;;;;;21.80;15.20;99124.75;5034742;28;20041;-76
2022/03/25 03:44:23;;;;;;;42.92;16.45;;;;;;;21.59;15.21;99123.84;5033574;28;20091;-77
2022/03/25 03:46:49;;;;;;;49.25;18.13;;;;;;;21.50;15.24;99123.41;5030712;28;20028;-77
2022/03/25 03:49:15;;;;;;;48.15;19.75;;;;;;;21.32;15.74;99126.13;5032417;28;20061;-77
2022/03/25 03:51:41;;;;;;;34.63;16.05;;;;;;;21.29;15.40;99126.91;5032470;28;20025;-77
2022/03/25 03:54:07;;;;;;;37.05;15.38;;;;;;;21.23;15.54;99129.28;5029571;28;20057;-76
2022/03/25 03:56:33;;;;;;;43.47;16.90;;;;;;;21.74;15.12;99126.34;5032315;28;20049;-77
2022/03/25 03:58:59;;;;;;;36.88;16.08;;;;;;;22.02;14.81;99129.28;5032840;28;20108;-76
2022/03/25 04:01:26;;;;;;;39.05;15.38;;;;;;;21.90;14.95;99131.63;5031807;28;20068;-77
2022/03/25 04:03:53;;;;;;;37.28;15.60;;;;;;;22.18;14.62;99128.91;5032457;28;20033;-77
2022/03/25 04:06:22;;;;;;;39.92;15.93;;;;;;;22.60;14.38;99126.22;5032921;28;20424;-76
2022/03/25 04:08:49;;;;;;;43.47;16.00;;;;;;;22.58;14.00;99128.59;5033350;28;20480;-77
2022/03/25 04:11:15;;;;;;;42.05;16.60;;;;;;;22.52;14.30;99127.34;5016402;28;20075;-77
2022/03/25 04:13:44;;;;;;;38.60;15.30;;;;;;;22.24;14.28;99120.94;5032549;28;20113;-77
2022/03/25 04:16:10;;;;;;;34.83;15.80;;;;;;;22.30;14.44;99124.94;5033881;28;20038;-77
2022/03/25 04:18:37;;;;;;;34.78;14.57;;;;;;;22.25;14.50;99125.31;5028098;28;20060;-77
2022/03/25 04:21:04;;;;;;;38.70;16.38;;;;;;;22.42;14.64;99128.16;5028883;28;20524;-77
2022/03/25 04:23:30;;;;;;;39.25;17.35;;;;;;;22.38;14.75;99123.75;5028352;28;20037;-77
2022/03/25 04:25:56;;;;;;;37.03;15.90;;;;;;;22.58;14.05;99122.19;5025990;28;20033;-77
2022/03/25 04:28:23;;;;;;;40.72;16.80;;;;;;;22.58;14.13;99122.97;5030994;28;20021;-77
2022/03/25 04:30:49;;;;;;;56.65;18.27;;;;;;;22.55;13.95;99123.78;5032265;28;20064;-77
2022/03/25 04:33:15;;;;;;;53.50;17.98;;;;;;;22.81;13.82;99125.41;5025903;28;20102;-77
2022/03/25 04:35:41;;;;;;;45.45;18.05;;;;;;;22.69;13.90;99126.59;5029178;28;20034;-77
2022/03/25 04:38:08;;;;;;;58.75;18.42;;;;;;;22.85;13.77;99125.41;5033063;28;20041;-77
2022/03/25 04:40:35;;;;;;;51.88;18.02;;;;;;;23.05;13.53;99129.41;5030611;28;20428;-77
2022/03/25 04:43:03;;;;;;;45.72;17.75;;;;;;;22.88;13.72;99131.00;5032570;28;20072;-77
2022/03/25 04:45:30;;;;;;;37.67;15.93;;;;;;;22.37;14.09;99131.34;5034530;28;20499;-77
2022/03/25 04:47:56;;;;;;;37.58;15.30;;;;;;;22.58;14.00;99131.38;5032092;28;20041;-77
2022/03/25 04:50:24;;;;;;;36.20;15.90;;;;;;;22.47;14.22;99124.97;5031639;28;20102;-77
2022/03/25 04:52:50;;;;;;;40.30;17.00;;;;;;;22.50;14.38;99126.97;5031341;28;20072;-77
2022/03/25 04:55:18;;;;;;;37.85;15.63;;;;;;;22.12;14.32;99138.91;5030505;28;20037;-78
2022/03/25 04:57:45;;;;;;;39.15;16.05;;;;;;;22.40;14.13;99140.94;5032305;28;20037;-77
2022/03/25 05:00:12;;;;;;;34.53;15.75;;;;;;;22.62;14.22;99142.59;5029120;28;20042;-77
2022/03/25 05:02:38;;;;;;;38.35;16.50;;;;;;;22.27;14.47;99145.31;5027724;28;20026;-77
2022/03/25 05:05:05;;;;;;;46.53;18.17;;;;;;;21.81;15.03;99142.34;5032431;28;20523;-77
2022/03/25 05:07:31;;;;;;;40.95;18.10;;;;;;;22.12;14.86;99140.88;5031153;28;20037;-77
2022/03/25 05:09:58;;;;;;;44.47;19.08;;;;;;;22.16;14.82;99144.47;5031287;28;20037;-77
2022/03/25 05:23:41;;;;;;;40.60;18.35;;;;;;;22.11;15.41;99148.47;5146328;27;20402;-74
2022/03/25 05:26:08;;;;;;;34.03;15.90;;;;;;;22.68;14.96;99160.63;5128420;27;20056;-74
2022/03/25 05:28:34;;;;;;;34.28;16.27;;;;;;;23.15;14.78;99165.78;5127773;27;20027;-74
2022/03/25 05:31:00;;;;;;;37.97;16.25;;;;;;;22.82;14.97;99169.03;5126869;27;20560;-75
2022/03/25 05:33:26;;;;;;;31.75;14.40;;;;;;;23.11;14.69;99170.59;5127147;27;20024;-75
2022/03/25 05:35:52;;;;;;;32.72;15.55;;;;;;;23.29;14.79;99174.19;5119856;27;20463;-75
2022/03/25 05:38:19;;;;;;;31.98;13.85;;;;;;;23.73;14.40;99175.72;5126047;27;20051;-75
2022/03/25 05:40:45;;;;;;;42.15;15.77;;;;;;;23.98;14.53;99170.81;5127496;27;20072;-75
2022/03/25 05:43:14;;;;;;;35.00;15.45;;;;;;;24.39;14.28;99176.66;5126209;27;20039;-76
2022/03/25 05:45:40;;;;;;;33.08;16.95;;;;;;;23.91;15.09;99185.69;5128010;27;20148;-76
2022/03/25 05:48:07;;;;;;;33.40;16.50;;;;;;;23.48;15.19;99187.00;5124844;27;20037;-76
2022/03/25 05:50:34;;;;;;;38.47;17.17;;;;;;;23.49;15.33;99188.59;5126253;27;20031;-76
2022/03/25 05:53:00;;;;;;;29.23;13.65;;;;;;;23.63;15.27;99184.97;5125424;27;20119;-76
2022/03/25 05:55:26;;;;;;;29.30;14.48;;;;;;;24.11;14.45;99186.03;5123874;27;20070;-76
2022/03/25 05:57:52;;;;;;;35.42;13.25;;;;;;;24.31;14.70;99189.13;5126220;27;20123;-77
2022/03/25 06:00:18;;;;;;;26.05;12.43;;;;;;;24.89;14.15;99177.97;5122662;27;20023;-77
2022/03/25 06:02:45;;;;;;;29.35;14.48;;;;;;;24.91;14.72;99183.97;5140467;27;20027;-76
2022/03/25 06:05:12;;;;;;;27.67;13.68;;;;;;;24.67;15.15;99180.09;5120861;27;20035;-77
2022/03/25 06:07:40;;;;;;;29.70;14.98;;;;;;;24.48;15.45;99183.41;5122460;27;20084;-77
2022/03/25 06:10:08;;;;;;;26.27;13.55;;;;;;;24.28;15.60;99193.56;5122623;27;20031;-78
2022/03/25 06:12:34;;;;;;;28.83;13.57;;;;;;;24.34;15.94;99193.94;5126257;27;20062;-78
2022/03/25 06:15:01;;;;;;;25.92;13.40;;;;;;;24.65;15.80;99181.69;5124224;27;20035;-78
2022/03/25 06:17:27;;;;;;;25.80;12.52;;;;;;;25.03;15.29;99196.72;5124668;27;20095;-82
2022/03/25 06:19:53;;;;;;;26.00;12.63;;;;;;;25.44;15.04;99194.75;5122192;27;20024;-82
2022/03/25 06:22:19;;;;;;;26.48;12.70;;;;;;;25.62;15.14;99194.59;5118912;27;20039;-78
2022/03/25 06:24:45;;;;;;;30.92;13.48;;;;;;;25.96;14.82;99192.59;5114015;27;20032;-78
2022/03/25 06:27:12;;;;;;;27.67;12.75;;;;;;;26.30;14.51;99195.41;5116080;28;20068;-78
2022/03/25 06:29:38;;;;;;;30.42;13.52;;;;;;;26.63;14.15;99189.69;5113615;27;20045;-77
2022/03/25 06:32:10;;;;;;;34.47;13.40;;;;;;;26.75;14.21;99199.59;5096111;28;20040;-78
2022/03/25 06:34:36;;;;;;;29.02;14.90;;;;;;;26.98;13.96;99194.00;5114693;28;20111;-78
2022/03/25 06:37:03;;;;;;;33.65;15.95;;;;;;;27.09;13.89;99193.84;5112480;28;20028;-77
2022/03/25 06:39:30;;;;;;;33.63;16.70;;;;;;;27.23;14.36;99196.44;5096044;28;20507;-78
2022/03/25 06:41:56;;;;;;;28.13;14.52;;;;;;;27.33;13.87;99193.41;5095863;28;20020;-78
2022/03/25 06:44:22;;;;;;;32.00;14.70;;;;;;;27.51;13.57;99193.16;5106730;28;20038;-78
2022/03/25 06:46:49;;;;;;;30.33;15.02;;;;;;;27.59;13.50;99197.41;5113953;28;20031;-77
2022/03/25 06:49:15;;;;;;;36.10;15.32;;;;;;;27.75;13.90;99199.56;5116283;28;20032;-77
2022/03/25 06:51:42;;;;;;;35.78;16.00;;;;;;;27.60;13.66;99192.56;5110060;27;20034;-78
2022/03/25 06:54:08;;;;;;;32.05;15.95;;;;;;;27.74;14.06;99203.59;5116077;28;20035;-77
2022/03/25 06:56:35;;;;;;;27.35;13.93;;;;;;;27.88;14.23;99195.66;5116178;28;20108;-77
2022/03/25 06:59:02;;;;;;;30.65;14.73;;;;;;;28.00;14.32;99199.88;5114066;27;20027;-78
2022/03/25 07:01:31;;;;;;;26.17;12.52;;;;;;;28.27;13.71;99202.53;5116182;28;20085;-78
2022/03/25 07:03:57;;;;;;;27.60;13.95;;;;;;;28.20;14.10;99208.34;5116157;28;20028;-78
2022/03/25 07:06:27;;;;;;;23.23;12.27;;;;;;;28.31;13.88;99209.69;5115730;28;20039;-77
2022/03/25 07:08:55;;;;;;;23.70;12.63;;;;;;;28.42;13.51;99203.84;5113032;27;20028;-78
2022/03/25 07:11:23;;;;;;;24.52;12.55;;;;;;;28.42;13.63;99203.84;5115960;28;20071;-78
2022/03/25 07:13:50;;;;;;;22.48;11.70;;;;;;;28.44;13.25;99199.34;5114697;28;20034;-77
2022/03/25 07:16:18;;;;;;;24.58;12.70;;;;;;;28.37;13.46;99212.81;5115573;27;20036;-78
2022/03/25 07:18:44;;;;;;;25.85;13.60;;;;;;;28.54;13.49;99206.78;5114385;28;20032;-78
2022/03/25 07:21:11;;;;;;;28.02;14.07;;;;;;;28.76;13.14;99207.13;5115722;28;20032;-78
2022/03/25 07:23:37;;;;;;;24.00;12.25;;;;;;;28.62;13.09;99211.06;5113999;28;20043;-78
2022/03/25 07:26:04;;;;;;;37.00;16.50;;;;;;;28.83;12.73;99201.31;5111549;28;20027;-78
2022/03/25 07:28:31;;;;;;;25.23;10.40;;;;;;;27.65;12.78;99207.00;5112753;28;20122;-78
2022/03/25 07:30:57;;;;;;;22.83;11.15;;;;;;;27.54;13.30;99214.06;5110389;28;20388;-77
2022/03/25 07:33:23;;;;;;;15.52;8.82;;;;;;;27.04;13.46;99208.44;5099424;27;20038;-78
2022/03/25 07:35:49;;;;;;;19.95;10.45;;;;;;;24.80;14.76;99216.97;5113362;28;20051;-77
2022/03/25 07:38:15;;;;;;;28.83;12.90;;;;;;;25.02;14.76;99220.41;5114143;28;20039;-77
2022/03/25 07:40:41;;;;;;;24.80;12.55;;;;;;;25.30;14.53;99209.72;5114033;28;20024;-78
2022/03/25 07:43:08;;;;;;;34.38;16.40;;;;;;;24.94;14.50;99216.06;5114894;28;20111;-78
2022/03/25 07:45:34;;;;;;;21.88;11.82;;;;;;;23.72;15.79;99219.78;5113727;28;20500;-78
2022/03/25 07:48:00;;;;;;;37.65;15.70;;;;;;;24.41;15.15;99213.56;5114255;28;20024;-77
2022/03/25 07:50:26;;;;;;;30.25;13.23;;;;;;;25.43;14.27;99212.81;5109614;28;20119;-78
2022/03/25 07:52:53;;;;;;;40.22;18.13;;;;;;;24.57;14.83;99223.09;5113511;28;20500;-78
2022/03/25 07:55:20;;;;;;;31.38;15.13;;;;;;;25.34;14.70;99215.31;5114227;28;20027;-78
2022/03/25 07:57:47;;;;;;;28.95;13.65;;;;;;;23.50;15.65;99220.25;5115096;28;20043;-78
2022/03/25 08:00:14;;;;;;;28.92;14.20;;;;;;;23.87;15.29;99229.78;5112274;28;20095;-78
2022/03/25 08:02:42;;;;;;;35.55;18.45;;;;;;;24.44;15.07;99221.13;5110499;28;20026;-78
2022/03/25 08:05:10;;;;;;;29.08;14.88;;;;;;;25.55;14.33;99214.34;5114616;28;20036;-78
2022/03/25 08:07:52;;;;;;;29.00;14.60;;;;;;;25.49;14.19;99222.41;5113351;28;20034;-78
2022/03/25 08:10:27;;;;;;;26.75;13.32;;;;;;;26.46;13.64;99220.94;5110333;28;20455;-77
2022/03/25 08:12:56;;;;;;;25.50;13.20;;;;;;;25.88;13.88;99227.66;5103166;28;20499;-78
2022/03/25 08:15:23;;;;;;;25.27;12.70;;;;;;;25.70;14.02;99227.03;5114650;28;20032;-78
2022/03/25 08:17:58;;;;;;;19.42;10.57;;;;;;;26.17;13.41;99230.97;5114310;28;20049;-78
2022/03/25 08:20:42;;;;;;;20.38;11.18;;;;;;;26.65;13.42;99228.72;5113628;28;20039;-78
2022/03/25 08:28:50;;;;;;;20.13;10.38;;;;;;;28.12;12.24;99227.47;5113605;28;20054;-78
2022/03/25 08:31:17;;;;;;;24.40;10.73;;;;;;;28.97;12.07;99229.25;5113273;28;20050;-78
2022/03/25 08:33:43;;;;;;;19.70;10.10;;;;;;;28.65;12.37;99230.00;5110753;28;20039;-78
2022/03/25 08:36:10;;;;;;;22.23;11.45;;;;;;;28.96;11.75;99221.22;5113827;28;20051;-78
2022/03/25 08:38:36;;;;;;;17.65;8.98;;;;;;;29.25;11.56;99222.91;5112862;28;20057;-78
2022/03/25 08:52:06;;;;;;;14.73;8.30;;;;;;;28.96;11.25;99219.19;5135651;27;20124;-76
2022/03/25 08:54:32;;;;;;;17.83;7.75;;;;;;;28.70;11.47;99220.19;5131594;28;20031;-76
2022/03/25 08:56:58;;;;;;;13.73;7.55;;;;;;;28.26;12.01;99224.38;5131123;28;20360;-76
2022/03/25 08:59:25;;;;;;;12.23;6.85;;;;;;;27.14;11.40;99219.50;5130678;28;20110;-76
2022/03/25 09:01:51;;;;;;;11.55;6.20;;;;;;;28.65;10.81;99220.72;5098265;28;20406;-76
2022/03/25 09:04:17;;;;;;;12.95;6.95;;;;;;;27.91;11.56;99217.34;5131363;28;20035;-76
2022/03/25 09:06:43;;;;;;;16.73;7.38;;;;;;;25.40;13.40;99217.25;5129658;28;20030;-76
2022/03/25 09:09:09;;;;;;;7.13;3.78;;;;;;;25.40;12.11;99227.69;5125645;27;20123;-76
2022/03/25 09:11:36;;;;;;;9.70;3.72;;;;;;;25.67;12.30;99214.59;5130032;28;20039;-76
2022/03/25 09:14:02;;;;;;;7.75;3.58;;;;;;;25.86;12.33;99213.19;5129352;28;20031;-76
2022/03/25 09:16:28;;;;;;;7.78;3.72;;;;;;;24.86;12.95;99217.31;5130268;28;20480;-76
2022/03/25 09:18:56;;;;;;;7.80;3.70;;;;;;;26.68;11.66;99211.75;5130937;28;20031;-76
2022/03/25 09:21:22;;;;;;;7.25;3.33;;;;;;;28.44;10.73;99215.50;5128796;28;20396;-76
2022/03/25 09:23:48;;;;;;;5.93;3.78;;;;;;;29.16;10.42;99211.41;5111712;28;20027;-78
2022/03/25 09:26:16;;;;;;;5.65;2.67;;;;;;;27.43;10.25;99217.06;5125953;28;20062;-79
2022/03/25 09:28:42;;;;;;;6.57;2.95;;;;;;;28.65;10.31;99217.88;5131069;28;20377;-78
2022/03/25 09:31:08;;;;;;;8.23;2.95;;;;;;;27.88;10.58;99215.41;5130745;28;20479;-79
2022/03/25 09:33:34;;;;;;;7.28;3.08;;;;;;;26.66;11.96;99210.59;5129421;28;20059;-79
2022/03/25 09:36:00;;;;;;;8.77;3.45;;;;;;;25.49;12.60;99211.19;5125131;28;20028;-79
2022/03/25 09:38:27;;;;;;;4.70;3.25;;;;;;;25.53;12.60;99208.34;5129747;28;20032;-79
2022/03/25 09:40:54;;;;;;;8.85;3.40;;;;;;;25.74;12.13;99208.13;5130083;28;20036;-78
2022/03/25 09:43:22;;;;;;;6.57;2.67;;;;;;;24.38;13.09;99206.75;5127433;28;20027;-79
2022/03/25 09:45:48;;;;;;;6.60;3.47;;;;;;;23.50;13.83;99214.63;5130073;27;20118;-79
2022/03/25 09:48:14;;;;;;;6.22;3.30;;;;;;;23.90;14.37;99211.31;5130717;27;20030;-79
2022/03/25 09:50:41;;;;;;;7.00;3.22;;;;;;;25.95;12.79;99202.25;5129357;28;20079;-79
2022/03/25 09:53:08;;;;;;;7.93;3.20;;;;;;;25.73;12.35;99207.31;5115228;27;20085;-79
2022/03/25 09:55:46;;;;;;;4.47;2.72;;;;;;;28.02;10.58;99203.88;5114894;28;20080;-79
2022/03/25 09:58:20;;;;;;;5.38;2.70;;;;;;;29.20;10.26;99198.00;5113975;28;20032;-79
2022/03/25 10:00:53;;;;;;;5.82;3.47;;;;;;;26.23;11.84;99204.75;5096287;28;20392;-79
2022/03/25 10:03:40;;;;;;;9.90;4.85;;;;;;;24.81;13.53;99201.69;5114345;28;20523;-79
2022/03/25 10:06:11;;;;;;;4.68;3.15;;;;;;;25.57;13.35;99220.34;5108218;28;20157;-79
2022/03/25 10:08:40;;;;;;;;;;;;;;;25.79;13.07;99213.31;5116856;28;20028;-79
2022/03/25 10:11:31;;;;;;;5.30;3.97;;;;;;;28.52;11.64;99202.81;5115333;28;20007;-78
2022/03/25 10:14:23;;;;;;;6.07;3.97;;;;;;;30.19;11.21;99203.81;5100255;28;20035;-79
2022/03/25 10:16:53;;;;;;;10.65;4.88;;;;;;;26.84;12.28;99204.72;5096412;28;20077;-78
2022/03/25 10:19:24;;;;;;;7.90;4.18;;;;;;;29.15;10.79;99198.50;5095587;28;20028;-80
2022/03/25 10:21:59;;;;;;;6.45;3.53;;;;;;;29.53;10.99;99200.78;5100910;28;20407;-79
2022/03/25 10:24:44;;;;;;;8.60;4.43;;;;;;;29.67;10.51;99189.88;5115743;28;20496;-79
2022/03/25 10:27:10;;;;;;;6.82;3.75;;;;;;;30.21;10.57;99190.00;5116007;28;20032;-79
2022/03/25 10:29:37;;;;;;;14.45;6.97;;;;;;;26.60;13.13;99199.00;5116253;28;20085;-79
2022/03/25 10:32:12;;;;;;;9.25;4.60;;;;;;;27.80;12.64;99193.38;5112986;28;20028;-79
2022/03/25 10:34:40;;;;;;;8.60;4.88;;;;;;;28.81;11.86;99191.66;5109196;28;20039;-79
2022/03/25 10:37:12;;;;;;;11.70;4.88;;;;;;;29.23;11.75;99187.81;5114356;28;20059;-79
2022/03/25 10:39:49;;;;;;;9.02;4.55;;;;;;;27.96;12.40;99188.63;5116015;28;20028;-79
2022/03/25 10:42:15;;;;;;;6.82;3.67;;;;;;;29.71;11.26;99184.91;5103734;28;20035;-79
2022/03/25 10:44:43;;;;;;;7.72;4.25;;;;;;;30.38;10.54;99183.03;5115312;28;20039;-80
2022/03/25 10:47:15;;;;;;;7.30;4.00;;;;;;;31.27;10.49;99172.50;5115650;27;20441;-80
2022/03/25 10:49:46;;;;;;;8.30;4.38;;;;;;;30.76;10.35;99174.53;5108031;28;20047;-80
2022/03/25 10:52:30;;;;;;;13.55;4.28;;;;;;;28.86;11.78;99172.16;5097087;28;20042;-79
2022/03/25 10:55:29;;;;;;;11.27;5.53;;;;;;;26.63;13.27;99181.25;5115772;28;20063;-80
2022/03/25 10:57:58;;;;;;;9.68;5.03;;;;;;;26.39;13.54;99178.78;5092305;28;20046;-80
2022/03/25 11:00:26;;;;;;;8.48;4.88;;;;;;;27.72;12.64;99173.00;5101508;28;20040;-77
2022/03/25 11:02:53;;;;;;;9.20;4.68;;;;;;;26.39;13.74;99179.59;5094770;28;20032;-77
2022/03/25 11:05:19;;;;;;;8.23;4.57;;;;;;;25.42;14.63;99189.53;5094451;28;20028;-77
2022/03/25 11:07:47;;;;;;;10.88;5.30;;;;;;;26.16;13.92;99184.34;5108116;28;20027;-77
2022/03/25 11:10:17;;;;;;;13.98;5.40;;;;;;;28.38;12.11;99174.88;5095071;28;20035;-77
2022/03/25 11:12:46;;;;;;;13.57;5.25;;;;;;;28.56;11.87;99170.41;5113350;28;20023;-77
2022/03/25 11:15:14;;;;;;;8.13;4.63;;;;;;;30.14;11.26;99161.88;5114382;27;20428;-77
2022/03/25 11:17:44;;;;;;;7.10;3.60;;;;;;;30.40;10.41;99166.38;5115333;28;20050;-77
2022/03/25 11:20:12;;;;;;;11.13;4.53;;;;;;;30.87;10.40;99162.88;5106958;28;20040;-78
2022/03/25 11:22:49;;;;;;;10.48;4.57;;;;;;;30.61;10.35;99162.09;5094313;28;20078;-77
2022/03/25 11:25:21;;;;;;;7.07;4.22;;;;;;;29.41;11.14;99165.53;5100907;28;20551;-77
2022/03/25 11:27:54;;;;;;;9.45;5.60;;;;;;;30.85;10.47;99148.34;5114756;28;20511;-77
2022/03/25 11:30:21;;;;;;;8.27;4.85;;;;;;;31.73;10.97;99148.19;5113914;28;20028;-77
2022/03/25 11:33:06;;;;;;;7.47;4.10;;;;;;;32.31;9.45;99151.28;5113560;28;20023;-77
2022/03/25 11:35:36;;;;;;;9.52;4.05;;;;;;;32.59;9.53;99142.47;5114430;28;20506;-77
2022/03/25 11:38:18;;;;;;;6.72;4.07;;;;;;;33.13;9.85;99136.19;5114664;28;20077;-77
2022/03/25 11:40:52;;;;;;;9.60;4.72;;;;;;;32.70;9.63;99142.81;5110578;28;20480;-77
2022/03/25 11:43:27;;;;;;;6.15;3.50;;;;;;;31.73;10.03;99133.97;5107280;28;20039;-77
2022/03/25 11:46:11;;;;;;;13.45;6.05;;;;;;;31.16;9.79;99133.13;5113142;28;20123;-78
2022/03/25 11:48:39;;;;;;;8.75;6.05;;;;;;;29.28;11.66;99134.34;5114468;28;20031;-78
2022/03/25 11:51:29;;;;;;;15.30;7.30;;;;;;;27.85;12.27;99139.25;5110439;28;20050;-77
2022/03/25 11:53:56;;;;;;;10.93;5.68;;;;;;;30.22;11.40;99129.25;5114667;28;20032;-77